sensor_id;sensor_type;location;lat;lon;timestamp;pressure;altitude;pressure_sealevel;temperature;humidity
77017;BME280;65949;53.132;17.930;2023-04-03T00:00:37;102245.90;;;-0.04;68.23
77017;BME280;65949;53.132;17.930;2023-04-03T00:03:16;102245.06;;;-0.08;68.56
77017;BME280;65949;53.132;17.930;2023-04-03T00:05:43;102245.15;;;-0.11;68.32
77017;BME280;65949;53.132;17.930;2023-04-03T00:08:10;102245.34;;;-0.13;68.44
77017;BME280;65949;53.132;17.930;2023-04-03T00:10:37;102245.67;;;-0.11;68.93
77017;BME280;65949;53.132;17.930;2023-04-03T00:13:05;102241.43;;;-0.11;68.67
77017;BME280;65949;53.132;17.930;2023-04-03T00:15:33;102242.23;;;-0.07;68.57
77017;BME280;65949;53.132;17.930;2023-04-03T00:17:59;102240.96;;;-0.04;68.64
77017;BME280;65949;53.132;17.930;2023-04-03T00:20:26;102241.95;;;-0.02;68.51
77017;BME280;65949;53.132;17.930;2023-04-03T00:22:54;102239.61;;;-0.03;68.63
77017;BME280;65949;53.132;17.930;2023-04-03T00:25:21;102241.42;;;-0.04;68.79
77017;BME280;65949;53.132;17.930;2023-04-03T00:27:48;102240.62;;;-0.05;68.78
77017;BME280;65949;53.132;17.930;2023-04-03T00:30:17;102242.01;;;-0.06;68.73
77017;BME280;65949;53.132;17.930;2023-04-03T00:32:44;102241.64;;;-0.10;68.90
77017;BME280;65949;53.132;17.930;2023-04-03T00:35:11;102236.84;;;-0.13;69.06
77017;BME280;65949;53.132;17.930;2023-04-03T00:37:42;102239.29;;;-0.15;68.87
77017;BME280;65949;53.132;17.930;2023-04-03T00:40:10;102236.92;;;-0.20;69.09
77017;BME280;65949;53.132;17.930;2023-04-03T00:42:40;102237.39;;;-0.19;69.03
77017;BME280;65949;53.132;17.930;2023-04-03T00:47:40;102237.08;;;-0.17;69.23
77017;BME280;65949;53.132;17.930;2023-04-03T00:50:07;102239.20;;;-0.16;69.33
77017;BME280;65949;53.132;17.930;2023-04-03T00:52:34;102243.57;;;-0.15;69.11
77017;BME280;65949;53.132;17.930;2023-04-03T00:55:04;102242.16;;;-0.17;69.31
77017;BME280;65949;53.132;17.930;2023-04-03T00:57:32;102243.52;;;-0.19;69.29
77017;BME280;65949;53.132;17.930;2023-04-03T01:00:06;102240.77;;;-0.20;69.33
77017;BME280;65949;53.132;17.930;2023-04-03T01:02:35;102240.54;;;-0.23;69.53
77017;BME280;65949;53.132;17.930;2023-04-03T01:05:03;102240.34;;;-0.26;69.38
77017;BME280;65949;53.132;17.930;2023-04-03T01:07:31;102243.80;;;-0.29;69.50
77017;BME280;65949;53.132;17.930;2023-04-03T01:10:02;102241.02;;;-0.32;69.63
77017;BME280;65949;53.132;17.930;2023-04-03T01:12:32;102238.23;;;-0.35;69.54
77017;BME280;65949;53.132;17.930;2023-04-03T01:15:06;102238.15;;;-0.37;69.56
77017;BME280;65949;53.132;17.930;2023-04-03T01:25:47;102248.20;;;-0.34;69.98
77017;BME280;65949;53.132;17.930;2023-04-03T01:28:35;102249.73;;;-0.33;69.91
77017;BME280;65949;53.132;17.930;2023-04-03T01:33:53;102252.84;;;-0.34;69.96
77017;BME280;65949;53.132;17.930;2023-04-03T01:36:26;102259.57;;;-0.36;70.18
77017;BME280;65949;53.132;17.930;2023-04-03T01:38:55;102257.55;;;-0.39;70.17
77017;BME280;65949;53.132;17.930;2023-04-03T01:41:22;102258.23;;;-0.40;70.36
77017;BME280;65949;53.132;17.930;2023-04-03T01:43:50;102261.63;;;-0.44;70.33
77017;BME280;65949;53.132;17.930;2023-04-03T01:46:18;102260.90;;;-0.47;70.45
77017;BME280;65949;53.132;17.930;2023-04-03T01:48:45;102261.59;;;-0.49;70.44
77017;BME280;65949;53.132;17.930;2023-04-03T01:51:12;102262.16;;;-0.51;70.45
77017;BME280;65949;53.132;17.930;2023-04-03T01:53:38;102262.27;;;-0.51;70.61
77017;BME280;65949;53.132;17.930;2023-04-03T01:56:06;102262.58;;;-0.48;70.50
77017;BME280;65949;53.132;17.930;2023-04-03T01:58:33;102264.44;;;-0.46;70.44
77017;BME280;65949;53.132;17.930;2023-04-03T02:01:00;102265.78;;;-0.46;70.44
77017;BME280;65949;53.132;17.930;2023-04-03T02:03:29;102264.02;;;-0.46;70.66
77017;BME280;65949;53.132;17.930;2023-04-03T02:05:56;102264.67;;;-0.45;70.55
77017;BME280;65949;53.132;17.930;2023-04-03T02:08:23;102264.64;;;-0.47;70.51
77017;BME280;65949;53.132;17.930;2023-04-03T02:10:50;102263.27;;;-0.50;70.68
77017;BME280;65949;53.132;17.930;2023-04-03T02:13:18;102263.08;;;-0.52;70.84
77017;BME280;65949;53.132;17.930;2023-04-03T02:15:46;102269.07;;;-0.54;70.76
77017;BME280;65949;53.132;17.930;2023-04-03T02:18:14;102266.50;;;-0.57;70.81
77017;BME280;65949;53.132;17.930;2023-04-03T02:20:41;102270.40;;;-0.61;70.78
77017;BME280;65949;53.132;17.930;2023-04-03T02:23:08;102265.20;;;-0.64;70.82
77017;BME280;65949;53.132;17.930;2023-04-03T02:25:35;102266.45;;;-0.66;70.95
77017;BME280;65949;53.132;17.930;2023-04-03T02:28:01;102266.88;;;-0.67;70.93
77017;BME280;65949;53.132;17.930;2023-04-03T02:30:28;102269.92;;;-0.67;71.10
77017;BME280;65949;53.132;17.930;2023-04-03T02:32:54;102272.10;;;-0.66;71.08
77017;BME280;65949;53.132;17.930;2023-04-03T02:35:22;102270.49;;;-0.67;71.26
77017;BME280;65949;53.132;17.930;2023-04-03T02:37:48;102275.64;;;-0.68;71.13
77017;BME280;65949;53.132;17.930;2023-04-03T02:40:16;102276.02;;;-0.68;71.15
77017;BME280;65949;53.132;17.930;2023-04-03T02:42:43;102279.64;;;-0.70;71.42
77017;BME280;65949;53.132;17.930;2023-04-03T02:45:11;102283.45;;;-0.73;71.41
77017;BME280;65949;53.132;17.930;2023-04-03T02:47:38;102291.75;;;-0.74;71.27
77017;BME280;65949;53.132;17.930;2023-04-03T02:50:05;102293.95;;;-0.78;71.65
77017;BME280;65949;53.132;17.930;2023-04-03T02:52:32;102288.67;;;-0.81;71.77
77017;BME280;65949;53.132;17.930;2023-04-03T02:54:59;102291.39;;;-0.85;71.65
77017;BME280;65949;53.132;17.930;2023-04-03T02:57:26;102290.61;;;-0.89;71.72
77017;BME280;65949;53.132;17.930;2023-04-03T02:59:52;102293.14;;;-0.91;72.06
77017;BME280;65949;53.132;17.930;2023-04-03T03:02:19;102296.88;;;-0.91;71.81
77017;BME280;65949;53.132;17.930;2023-04-03T03:04:46;102297.66;;;-0.90;72.00
77017;BME280;65949;53.132;17.930;2023-04-03T03:07:12;102296.66;;;-0.90;72.18
77017;BME280;65949;53.132;17.930;2023-04-03T03:09:39;102299.65;;;-0.91;71.95
77017;BME280;65949;53.132;17.930;2023-04-03T03:12:06;102300.11;;;-0.93;72.07
77017;BME280;65949;53.132;17.930;2023-04-03T03:14:33;102301.46;;;-0.96;72.01
77017;BME280;65949;53.132;17.930;2023-04-03T03:16:59;102300.50;;;-0.97;72.25
77017;BME280;65949;53.132;17.930;2023-04-03T03:19:26;102301.85;;;-1.00;72.56
77017;BME280;65949;53.132;17.930;2023-04-03T03:21:53;102299.75;;;-1.04;72.43
77017;BME280;65949;53.132;17.930;2023-04-03T03:24:20;102305.66;;;-1.07;72.56
77017;BME280;65949;53.132;17.930;2023-04-03T03:26:47;102301.65;;;-1.06;72.55
77017;BME280;65949;53.132;17.930;2023-04-03T03:29:15;102303.60;;;-1.05;72.47
77017;BME280;65949;53.132;17.930;2023-04-03T03:31:42;102304.28;;;-1.03;72.43
77017;BME280;65949;53.132;17.930;2023-04-03T03:34:08;102306.58;;;-1.02;72.46
77017;BME280;65949;53.132;17.930;2023-04-03T03:36:35;102308.15;;;-1.00;72.65
77017;BME280;65949;53.132;17.930;2023-04-03T03:39:02;102312.27;;;-1.01;72.58
77017;BME280;65949;53.132;17.930;2023-04-03T03:41:29;102312.23;;;-1.02;72.47
77017;BME280;65949;53.132;17.930;2023-04-03T03:43:56;102309.98;;;-1.03;72.50
77017;BME280;65949;53.132;17.930;2023-04-03T03:46:23;102313.92;;;-1.06;72.37
77017;BME280;65949;53.132;17.930;2023-04-03T03:48:50;102318.71;;;-1.08;72.44
77017;BME280;65949;53.132;17.930;2023-04-03T03:51:17;102317.42;;;-1.10;72.91
77017;BME280;65949;53.132;17.930;2023-04-03T03:53:43;102320.17;;;-1.11;72.81
77017;BME280;65949;53.132;17.930;2023-04-03T03:56:13;102321.84;;;-1.10;72.81
77017;BME280;65949;53.132;17.930;2023-04-03T03:58:40;102320.63;;;-1.10;72.90
77017;BME280;65949;53.132;17.930;2023-04-03T04:01:07;102322.89;;;-1.11;72.86
77017;BME280;65949;53.132;17.930;2023-04-03T04:03:37;102326.92;;;-1.10;72.81
77017;BME280;65949;53.132;17.930;2023-04-03T04:06:04;102329.33;;;-1.10;72.96
77017;BME280;65949;53.132;17.930;2023-04-03T04:08:30;102325.75;;;-1.12;73.07
77017;BME280;65949;53.132;17.930;2023-04-03T04:10:57;102329.28;;;-1.13;73.21
77017;BME280;65949;53.132;17.930;2023-04-03T04:13:24;102332.25;;;-1.16;73.10
77017;BME280;65949;53.132;17.930;2023-04-03T04:15:51;102331.66;;;-1.17;73.26
77017;BME280;65949;53.132;17.930;2023-04-03T04:18:17;102335.48;;;-1.18;73.44
77017;BME280;65949;53.132;17.930;2023-04-03T04:20:46;102339.04;;;-1.15;73.40
77017;BME280;65949;53.132;17.930;2023-04-03T04:23:13;102341.80;;;-1.12;73.29
77017;BME280;65949;53.132;17.930;2023-04-03T04:25:40;102342.86;;;-1.10;73.40
77017;BME280;65949;53.132;17.930;2023-04-03T04:28:07;102345.77;;;-1.09;73.22
77017;BME280;65949;53.132;17.930;2023-04-03T04:30:35;102347.77;;;-1.08;73.39
77017;BME280;65949;53.132;17.930;2023-04-03T04:33:01;102346.95;;;-1.09;73.38
77017;BME280;65949;53.132;17.930;2023-04-03T04:35:28;102346.54;;;-1.10;73.43
77017;BME280;65949;53.132;17.930;2023-04-03T04:37:55;102345.25;;;-1.10;73.30
77017;BME280;65949;53.132;17.930;2023-04-03T04:40:22;102345.16;;;-1.10;73.40
77017;BME280;65949;53.132;17.930;2023-04-03T04:42:49;102341.20;;;-1.09;73.34
77017;BME280;65949;53.132;17.930;2023-04-03T04:45:16;102346.86;;;-1.06;73.23
77017;BME280;65949;53.132;17.930;2023-04-03T04:47:44;102349.42;;;-1.02;72.98
77017;BME280;65949;53.132;17.930;2023-04-03T04:50:11;102354.09;;;-0.97;73.05
77017;BME280;65949;53.132;17.930;2023-04-03T04:52:38;102353.70;;;-0.93;72.82
77017;BME280;65949;53.132;17.930;2023-04-03T04:55:06;102360.02;;;-0.91;72.85
77017;BME280;65949;53.132;17.930;2023-04-03T04:57:33;102362.08;;;-0.91;72.82
77017;BME280;65949;53.132;17.930;2023-04-03T05:00:00;102362.91;;;-0.89;72.82
77017;BME280;65949;53.132;17.930;2023-04-03T05:02:27;102363.93;;;-0.87;72.76
77017;BME280;65949;53.132;17.930;2023-04-03T05:04:54;102367.56;;;-0.86;72.61
77017;BME280;65949;53.132;17.930;2023-04-03T05:07:24;102370.73;;;-0.81;72.69
77017;BME280;65949;53.132;17.930;2023-04-03T05:09:51;102371.92;;;-0.75;72.51
77017;BME280;65949;53.132;17.930;2023-04-03T05:12:18;102372.67;;;-0.69;72.46
77017;BME280;65949;53.132;17.930;2023-04-03T05:14:49;102375.08;;;-0.61;72.19
77017;BME280;65949;53.132;17.930;2023-04-03T05:17:16;102375.68;;;-0.55;72.03
77017;BME280;65949;53.132;17.930;2023-04-03T05:19:46;102374.08;;;-0.51;71.98
77017;BME280;65949;53.132;17.930;2023-04-03T05:22:13;102378.81;;;-0.47;71.60
77017;BME280;65949;53.132;17.930;2023-04-03T05:24:39;102377.33;;;-0.41;71.51
77017;BME280;65949;53.132;17.930;2023-04-03T05:27:06;102376.83;;;-0.21;71.27
77017;BME280;65949;53.132;17.930;2023-04-03T05:29:35;102372.95;;;0.49;69.88
77017;BME280;65949;53.132;17.930;2023-04-03T05:32:02;102373.06;;;1.09;68.21
77017;BME280;65949;53.132;17.930;2023-04-03T05:34:29;102371.74;;;1.55;67.28
77017;BME280;65949;53.132;17.930;2023-04-03T05:36:56;102374.21;;;1.93;66.03
77017;BME280;65949;53.132;17.930;2023-04-03T05:39:22;102377.21;;;2.29;66.03
77017;BME280;65949;53.132;17.930;2023-04-03T05:41:50;102370.17;;;2.56;64.08
77017;BME280;65949;53.132;17.930;2023-04-03T05:44:18;102370.61;;;2.67;63.66
77017;BME280;65949;53.132;17.930;2023-04-03T05:46:45;102375.19;;;2.81;63.68
77017;BME280;65949;53.132;17.930;2023-04-03T05:49:12;102370.47;;;2.93;63.26
77017;BME280;65949;53.132;17.930;2023-04-03T05:51:39;102379.05;;;3.02;63.02
77017;BME280;65949;53.132;17.930;2023-04-03T05:54:17;102373.25;;;3.07;62.24
77017;BME280;65949;53.132;17.930;2023-04-03T05:56:45;102374.83;;;2.94;62.44
77017;BME280;65949;53.132;17.930;2023-04-03T05:59:12;102372.07;;;2.74;62.62
77017;BME280;65949;53.132;17.930;2023-04-03T06:01:39;102372.74;;;2.57;62.30
77017;BME280;65949;53.132;17.930;2023-04-03T06:04:06;102377.31;;;2.41;62.22
77017;BME280;65949;53.132;17.930;2023-04-03T06:06:53;102377.02;;;2.21;60.92
77017;BME280;65949;53.132;17.930;2023-04-03T06:09:23;102378.98;;;1.98;61.09
77017;BME280;65949;53.132;17.930;2023-04-03T06:11:49;102383.44;;;1.88;60.72
77017;BME280;65949;53.132;17.930;2023-04-03T06:14:17;102384.77;;;1.79;60.84
77017;BME280;65949;53.132;17.930;2023-04-03T06:16:43;102386.94;;;1.69;60.42
77017;BME280;65949;53.132;17.930;2023-04-03T06:19:11;102389.95;;;1.68;61.21
77017;BME280;65949;53.132;17.930;2023-04-03T06:21:40;102390.13;;;1.61;59.57
77017;BME280;65949;53.132;17.930;2023-04-03T06:24:09;102391.23;;;1.61;60.89
77017;BME280;65949;53.132;17.930;2023-04-03T06:26:38;102390.87;;;1.56;59.79
77017;BME280;65949;53.132;17.930;2023-04-03T06:29:05;102395.91;;;1.51;60.77
77017;BME280;65949;53.132;17.930;2023-04-03T06:31:32;102394.70;;;1.53;59.01
77017;BME280;65949;53.132;17.930;2023-04-03T06:33:58;102396.45;;;1.56;60.09
77017;BME280;65949;53.132;17.930;2023-04-03T06:36:25;102400.57;;;1.66;59.84
77017;BME280;65949;53.132;17.930;2023-04-03T06:38:51;102402.36;;;1.81;59.46
77017;BME280;65949;53.132;17.930;2023-04-03T06:41:18;102399.73;;;1.90;57.72
77017;BME280;65949;53.132;17.930;2023-04-03T06:43:45;102403.38;;;2.03;57.81
77017;BME280;65949;53.132;17.930;2023-04-03T06:46:21;102401.51;;;2.16;56.98
77017;BME280;65949;53.132;17.930;2023-04-03T06:48:49;102402.81;;;2.28;55.41
77017;BME280;65949;53.132;17.930;2023-04-03T06:51:18;102406.02;;;2.47;54.58
77017;BME280;65949;53.132;17.930;2023-04-03T06:53:47;102404.63;;;2.57;53.25
77017;BME280;65949;53.132;17.930;2023-04-03T06:56:14;102414.11;;;2.65;54.14
77017;BME280;65949;53.132;17.930;2023-04-03T06:58:41;102414.13;;;2.76;53.29
77017;BME280;65949;53.132;17.930;2023-04-03T07:01:10;102412.05;;;2.86;52.96
77017;BME280;65949;53.132;17.930;2023-04-03T07:03:38;102418.42;;;2.84;51.61
77017;BME280;65949;53.132;17.930;2023-04-03T07:06:06;102421.77;;;2.87;52.05
77017;BME280;65949;53.132;17.930;2023-04-03T07:08:33;102426.17;;;2.82;51.19
77017;BME280;65949;53.132;17.930;2023-04-03T07:11:01;102433.96;;;2.82;51.82
77017;BME280;65949;53.132;17.930;2023-04-03T07:13:27;102427.52;;;2.78;51.73
77017;BME280;65949;53.132;17.930;2023-04-03T07:15:55;102436.61;;;2.87;52.30
77017;BME280;65949;53.132;17.930;2023-04-03T07:18:21;102429.60;;;2.92;52.31
77017;BME280;65949;53.132;17.930;2023-04-03T07:20:48;102437.66;;;2.92;51.73
77017;BME280;65949;53.132;17.930;2023-04-03T07:23:15;102433.36;;;2.84;51.43
77017;BME280;65949;53.132;17.930;2023-04-03T07:25:45;102440.31;;;2.82;51.65
77017;BME280;65949;53.132;17.930;2023-04-03T07:28:13;102444.73;;;2.74;51.81
77017;BME280;65949;53.132;17.930;2023-04-03T07:30:48;102441.14;;;2.64;51.83
77017;BME280;65949;53.132;17.930;2023-04-03T07:33:17;102446.50;;;2.50;52.10
77017;BME280;65949;53.132;17.930;2023-04-03T07:35:44;102447.02;;;2.52;52.22
77017;BME280;65949;53.132;17.930;2023-04-03T07:38:12;102453.94;;;2.60;51.86
77017;BME280;65949;53.132;17.930;2023-04-03T07:40:38;102451.09;;;2.70;51.11
77017;BME280;65949;53.132;17.930;2023-04-03T07:43:06;102449.55;;;2.87;50.83
77017;BME280;65949;53.132;17.930;2023-04-03T07:45:34;102446.50;;;3.08;50.77
77017;BME280;65949;53.132;17.930;2023-04-03T07:48:01;102444.68;;;3.20;50.17
77017;BME280;65949;53.132;17.930;2023-04-03T07:50:28;102449.09;;;3.28;50.17
77017;BME280;65949;53.132;17.930;2023-04-03T07:52:56;102448.02;;;3.43;49.57
77017;BME280;65949;53.132;17.930;2023-04-03T07:55:24;102445.05;;;3.36;48.33
77017;BME280;65949;53.132;17.930;2023-04-03T07:57:51;102453.63;;;3.31;48.72
77017;BME280;65949;53.132;17.930;2023-04-03T08:00:18;102448.52;;;3.27;47.75
77017;BME280;65949;53.132;17.930;2023-04-03T08:02:46;102451.80;;;3.21;47.73
77017;BME280;65949;53.132;17.930;2023-04-03T08:05:18;102452.27;;;3.21;47.53
77017;BME280;65949;53.132;17.930;2023-04-03T08:07:45;102453.07;;;3.17;47.50
77017;BME280;65949;53.132;17.930;2023-04-03T08:10:14;102455.89;;;3.01;47.32
77017;BME280;65949;53.132;17.930;2023-04-03T08:12:41;102460.21;;;2.90;47.21
77017;BME280;65949;53.132;17.930;2023-04-03T08:15:08;102459.59;;;2.80;47.17
77017;BME280;65949;53.132;17.930;2023-04-03T08:17:35;102466.19;;;2.72;47.02
77017;BME280;65949;53.132;17.930;2023-04-03T08:20:04;102467.64;;;2.62;46.42
77017;BME280;65949;53.132;17.930;2023-04-03T08:22:31;102457.95;;;2.54;46.61
77017;BME280;65949;53.132;17.930;2023-04-03T08:24:58;102461.33;;;2.50;46.99
77017;BME280;65949;53.132;17.930;2023-04-03T08:27:25;102461.99;;;2.50;46.87
77017;BME280;65949;53.132;17.930;2023-04-03T08:29:53;102463.37;;;2.53;47.21
77017;BME280;65949;53.132;17.930;2023-04-03T08:32:19;102461.93;;;2.50;46.71
77017;BME280;65949;53.132;17.930;2023-04-03T08:34:46;102461.13;;;2.45;46.66
77017;BME280;65949;53.132;17.930;2023-04-03T08:37:13;102468.56;;;2.49;47.53
77017;BME280;65949;53.132;17.930;2023-04-03T08:39:39;102468.19;;;2.53;47.64
77017;BME280;65949;53.132;17.930;2023-04-03T08:42:38;102468.45;;;2.55;47.16
77017;BME280;65949;53.132;17.930;2023-04-03T08:45:12;102467.25;;;2.70;46.36
77017;BME280;65949;53.132;17.930;2023-04-03T08:48:06;102463.91;;;2.83;46.64
77017;BME280;65949;53.132;17.930;2023-04-03T08:50:38;102461.07;;;2.99;46.53
77017;BME280;65949;53.132;17.930;2023-04-03T08:53:13;102460.95;;;3.09;46.43
77017;BME280;65949;53.132;17.930;2023-04-03T08:55:44;102464.44;;;3.13;45.04
77017;BME280;65949;53.132;17.930;2023-04-03T09:00:50;102451.89;;;3.34;43.35
77017;BME280;65949;53.132;17.930;2023-04-03T09:03:19;102455.59;;;3.43;43.68
77017;BME280;65949;53.132;17.930;2023-04-03T09:05:51;102454.93;;;3.65;43.83
77017;BME280;65949;53.132;17.930;2023-04-03T09:08:27;102455.08;;;3.93;44.25
77017;BME280;65949;53.132;17.930;2023-04-03T09:17:03;102451.23;;;4.46;41.57
77017;BME280;65949;53.132;17.930;2023-04-03T09:22:20;102452.73;;;4.80;41.86
77017;BME280;65949;53.132;17.930;2023-04-03T09:24:59;102452.28;;;4.81;42.24
77017;BME280;65949;53.132;17.930;2023-04-03T09:27:27;102457.88;;;4.88;41.69
77017;BME280;65949;53.132;17.930;2023-04-03T09:29:56;102458.13;;;4.90;41.88
77017;BME280;65949;53.132;17.930;2023-04-03T09:32:32;102453.14;;;4.91;41.70
77017;BME280;65949;53.132;17.930;2023-04-03T09:35:03;102452.30;;;4.93;41.97
77017;BME280;65949;53.132;17.930;2023-04-03T09:37:37;102453.98;;;4.87;40.85
77017;BME280;65949;53.132;17.930;2023-04-03T09:40:06;102456.21;;;4.81;40.41
77017;BME280;65949;53.132;17.930;2023-04-03T09:42:40;102454.59;;;4.88;40.82
77017;BME280;65949;53.132;17.930;2023-04-03T09:45:22;102457.60;;;5.11;41.14
77017;BME280;65949;53.132;17.930;2023-04-03T09:48:04;102460.64;;;5.07;41.83
77017;BME280;65949;53.132;17.930;2023-04-03T09:50:31;102466.14;;;4.72;42.09
77017;BME280;65949;53.132;17.930;2023-04-03T09:52:57;102471.80;;;4.33;43.02
77017;BME280;65949;53.132;17.930;2023-04-03T09:55:26;102472.27;;;4.11;42.47
77017;BME280;65949;53.132;17.930;2023-04-03T09:58:00;102467.75;;;4.09;42.47
77017;BME280;65949;53.132;17.930;2023-04-03T10:00:35;102461.61;;;4.13;42.07
77017;BME280;65949;53.132;17.930;2023-04-03T10:03:03;102461.55;;;4.23;42.39
77017;BME280;65949;53.132;17.930;2023-04-03T10:05:37;102454.69;;;4.46;42.47
77017;BME280;65949;53.132;17.930;2023-04-03T10:10:44;102461.33;;;4.74;42.45
77017;BME280;65949;53.132;17.930;2023-04-03T10:13:18;102466.13;;;4.68;42.09
77017;BME280;65949;53.132;17.930;2023-04-03T10:15:56;102471.73;;;4.42;42.25
77017;BME280;65949;53.132;17.930;2023-04-03T10:21:15;102467.36;;;4.12;43.37
77017;BME280;65949;53.132;17.930;2023-04-03T10:23:53;102462.33;;;4.24;43.00
77017;BME280;65949;53.132;17.930;2023-04-03T10:26:50;102458.80;;;4.41;42.46
77017;BME280;65949;53.132;17.930;2023-04-03T10:32:17;102456.96;;;4.89;42.18
77017;BME280;65949;53.132;17.930;2023-04-03T10:34:55;102450.99;;;5.00;41.99
77017;BME280;65949;53.132;17.930;2023-04-03T10:37:26;102456.48;;;5.13;41.00
77017;BME280;65949;53.132;17.930;2023-04-03T10:40:22;102459.16;;;5.01;40.03
77017;BME280;65949;53.132;17.930;2023-04-03T10:42:58;102451.06;;;4.88;40.19
77017;BME280;65949;53.132;17.930;2023-04-03T10:45:57;102446.14;;;5.13;41.31
77017;BME280;65949;53.132;17.930;2023-04-03T10:57:06;102458.29;;;5.18;40.11
77017;BME280;65949;53.132;17.930;2023-04-03T10:59:53;102457.73;;;4.97;40.79
77017;BME280;65949;53.132;17.930;2023-04-03T11:02:28;102449.56;;;5.13;40.26
77017;BME280;65949;53.132;17.930;2023-04-03T11:07:44;102451.26;;;5.26;40.00
77017;BME280;65949;53.132;17.930;2023-04-03T11:10:20;102455.09;;;5.11;40.28
77017;BME280;65949;53.132;17.930;2023-04-03T11:13:13;102456.33;;;4.98;40.64
77017;BME280;65949;53.132;17.930;2023-04-03T11:15:43;102455.44;;;4.97;40.94
77017;BME280;65949;53.132;17.930;2023-04-03T11:18:18;102448.94;;;4.94;40.66
77017;BME280;65949;53.132;17.930;2023-04-03T11:20:57;102450.55;;;4.78;41.15
77017;BME280;65949;53.132;17.930;2023-04-03T11:23:26;102444.38;;;4.77;40.96
77017;BME280;65949;53.132;17.930;2023-04-03T11:26:11;102437.39;;;5.04;41.22
77017;BME280;65949;53.132;17.930;2023-04-03T11:28:38;102429.23;;;5.40;39.57
77017;BME280;65949;53.132;17.930;2023-04-03T11:31:28;102418.73;;;5.56;38.52
77017;BME280;65949;53.132;17.930;2023-04-03T11:36:46;102415.67;;;5.65;37.94
77017;BME280;65949;53.132;17.930;2023-04-03T11:39:24;102416.27;;;5.76;38.48
77017;BME280;65949;53.132;17.930;2023-04-03T11:41:52;102417.44;;;5.91;38.98
77017;BME280;65949;53.132;17.930;2023-04-03T11:44:33;102420.65;;;5.84;38.38
77017;BME280;65949;53.132;17.930;2023-04-03T11:47:07;102416.89;;;5.83;38.78
77017;BME280;65949;53.132;17.930;2023-04-03T11:52:55;102413.20;;;5.98;39.51
77017;BME280;65949;53.132;17.930;2023-04-03T12:00:58;102420.56;;;6.01;39.23
77017;BME280;65949;53.132;17.930;2023-04-03T12:03:33;102420.68;;;5.59;39.78
77017;BME280;65949;53.132;17.930;2023-04-03T12:16:42;102404.27;;;6.02;39.06
77017;BME280;65949;53.132;17.930;2023-04-03T12:24:30;102408.06;;;5.62;39.05
77017;BME280;65949;53.132;17.930;2023-04-03T12:35:01;102402.80;;;5.69;39.82
77017;BME280;65949;53.132;17.930;2023-04-03T12:46:11;102392.17;;;5.82;39.42
77017;BME280;65949;53.132;17.930;2023-04-03T12:51:18;102392.42;;;5.43;40.23
77017;BME280;65949;53.132;17.930;2023-04-03T12:53:46;102394.30;;;5.21;40.14
77017;BME280;65949;53.132;17.930;2023-04-03T12:56:25;102389.86;;;5.16;39.85
77017;BME280;65949;53.132;17.930;2023-04-03T12:58:55;102388.48;;;5.29;39.98
77017;BME280;65949;53.132;17.930;2023-04-03T13:01:25;102381.11;;;5.55;39.43
77017;BME280;65949;53.132;17.930;2023-04-03T13:03:57;102385.85;;;5.85;39.76
77017;BME280;65949;53.132;17.930;2023-04-03T13:06:27;102382.55;;;5.99;39.30
77017;BME280;65949;53.132;17.930;2023-04-03T13:08:59;102383.04;;;6.00;39.60
77017;BME280;65949;53.132;17.930;2023-04-03T13:11:37;102385.64;;;5.74;38.94
77017;BME280;65949;53.132;17.930;2023-04-03T13:14:19;102391.17;;;5.47;39.41
77017;BME280;65949;53.132;17.930;2023-04-03T13:17:03;102394.39;;;5.39;39.72
77017;BME280;65949;53.132;17.930;2023-04-03T13:19:31;102385.73;;;5.37;39.96
77017;BME280;65949;53.132;17.930;2023-04-03T13:22:06;102387.17;;;5.40;40.02
77017;BME280;65949;53.132;17.930;2023-04-03T13:24:37;102384.88;;;5.63;39.31
77017;BME280;65949;53.132;17.930;2023-04-03T13:27:05;102378.30;;;5.78;39.04
77017;BME280;65949;53.132;17.930;2023-04-03T13:29:35;102374.29;;;5.81;38.49
77017;BME280;65949;53.132;17.930;2023-04-03T13:32:03;102366.11;;;5.74;38.82
77017;BME280;65949;53.132;17.930;2023-04-03T13:34:40;102368.33;;;5.83;39.65
77017;BME280;65949;53.132;17.930;2023-04-03T13:37:19;102362.92;;;5.94;39.54
77017;BME280;65949;53.132;17.930;2023-04-03T13:39:57;102363.82;;;5.83;38.55
77017;BME280;65949;53.132;17.930;2023-04-03T13:42:28;102364.52;;;5.67;38.45
77017;BME280;65949;53.132;17.930;2023-04-03T13:45:16;102372.02;;;5.62;38.19
77017;BME280;65949;53.132;17.930;2023-04-03T13:47:45;102373.02;;;5.55;37.93
77017;BME280;65949;53.132;17.930;2023-04-03T13:50:19;102371.11;;;5.51;38.61
77017;BME280;65949;53.132;17.930;2023-04-03T13:53:11;102372.77;;;5.51;39.18
77017;BME280;65949;53.132;17.930;2023-04-03T13:55:58;102362.30;;;5.61;39.48
77017;BME280;65949;53.132;17.930;2023-04-03T13:58:28;102364.39;;;5.54;40.38
77017;BME280;65949;53.132;17.930;2023-04-03T14:01:05;102365.17;;;5.46;40.55
77017;BME280;65949;53.132;17.930;2023-04-03T14:03:59;102375.03;;;5.32;41.67
77017;BME280;65949;53.132;17.930;2023-04-03T14:06:26;102373.17;;;5.20;42.16
77017;BME280;65949;53.132;17.930;2023-04-03T14:08:53;102380.57;;;5.10;42.56
77017;BME280;65949;53.132;17.930;2023-04-03T14:11:28;102371.92;;;5.02;42.85
77017;BME280;65949;53.132;17.930;2023-04-03T14:13:58;102369.82;;;5.00;42.44
77017;BME280;65949;53.132;17.930;2023-04-03T14:16:29;102364.24;;;5.21;42.11
77017;BME280;65949;53.132;17.930;2023-04-03T14:18:57;102361.90;;;5.59;41.01
77017;BME280;65949;53.132;17.930;2023-04-03T14:21:24;102360.25;;;5.77;40.57
77017;BME280;65949;53.132;17.930;2023-04-03T14:23:50;102356.05;;;5.66;41.34
77017;BME280;65949;53.132;17.930;2023-04-03T14:26:20;102354.23;;;5.58;41.92
77017;BME280;65949;53.132;17.930;2023-04-03T14:28:51;102353.69;;;5.30;42.34
77017;BME280;65949;53.132;17.930;2023-04-03T14:31:19;102360.63;;;5.11;43.69